sensor_id;sensor_type;location;lat;lon;timestamp;temperature;humidity
33699;DHT22;20032;52.436;13.312;2023-06-22T00:01:58;21.30;99.90
33699;DHT22;20032;52.436;13.312;2023-06-22T00:04:23;21.30;99.90
33699;DHT22;20032;52.436;13.312;2023-06-22T00:06:49;21.20;99.90
33699;DHT22;20032;52.436;13.312;2023-06-22T00:09:14;21.30;99.90
33699;DHT22;20032;52.436;13.312;2023-06-22T00:11:40;21.30;99.90
33699;DHT22;20032;52.436;13.312;2023-06-22T00:14:05;21.30;99.90
33699;DHT22;20032;52.436;13.312;2023-06-22T00:16:32;21.30;99.90
33699;DHT22;20032;52.436;13.312;2023-06-22T00:18:58;21.30;99.90
33699;DHT22;20032;52.436;13.312;2023-06-22T00:21:26;21.20;99.90
33699;DHT22;20032;52.436;13.312;2023-06-22T00:23:52;21.10;99.90
33699;DHT22;20032;52.436;13.312;2023-06-22T00:26:18;21.10;99.90
33699;DHT22;20032;52.436;13.312;2023-06-22T00:28:44;21.10;99.90
33699;DHT22;20032;52.436;13.312;2023-06-22T00:31:09;21.00;99.90
33699;DHT22;20032;52.436;13.312;2023-06-22T00:33:35;21.00;99.90
33699;DHT22;20032;52.436;13.312;2023-06-22T00:36:00;20.90;99.90
33699;DHT22;20032;52.436;13.312;2023-06-22T00:38:28;21.00;99.90
33699;DHT22;20032;52.436;13.312;2023-06-22T00:40:54;21.00;99.90
33699;DHT22;20032;52.436;13.312;2023-06-22T00:43:20;21.10;99.90
33699;DHT22;20032;52.436;13.312;2023-06-22T00:45:45;21.10;99.90
33699;DHT22;20032;52.436;13.312;2023-06-22T00:48:12;21.10;99.90
33699;DHT22;20032;52.436;13.312;2023-06-22T00:50:39;21.00;99.90
33699;DHT22;20032;52.436;13.312;2023-06-22T00:53:07;20.90;99.90
33699;DHT22;20032;52.436;13.312;2023-06-22T00:55:36;20.80;99.90
33699;DHT22;20032;52.436;13.312;2023-06-22T00:58:03;20.90;99.90
33699;DHT22;20032;52.436;13.312;2023-06-22T01:00:31;20.80;99.90
33699;DHT22;20032;52.436;13.312;2023-06-22T01:02:58;20.80;99.90
33699;DHT22;20032;52.436;13.312;2023-06-22T01:05:24;20.80;99.90
33699;DHT22;20032;52.436;13.312;2023-06-22T01:08:21;20.80;99.90
33699;DHT22;20032;52.436;13.312;2023-06-22T01:10:53;20.90;99.90
33699;DHT22;20032;52.436;13.312;2023-06-22T01:16:30;20.90;99.90
33699;DHT22;20032;52.436;13.312;2023-06-22T01:18:43;20.90;99.90
33699;DHT22;20032;52.436;13.312;2023-06-22T01:21:14;20.90;99.90
33699;DHT22;20032;52.436;13.312;2023-06-22T01:26:22;20.90;99.90
33699;DHT22;20032;52.436;13.312;2023-06-22T01:28:54;20.80;99.90
33699;DHT22;20032;52.436;13.312;2023-06-22T01:31:24;20.80;99.90
33699;DHT22;20032;52.436;13.312;2023-06-22T01:33:53;20.80;99.90
33699;DHT22;20032;52.436;13.312;2023-06-22T01:36:20;20.80;99.90
33699;DHT22;20032;52.436;13.312;2023-06-22T01:38:47;20.80;99.90
33699;DHT22;20032;52.436;13.312;2023-06-22T01:41:13;20.80;99.90
33699;DHT22;20032;52.436;13.312;2023-06-22T01:43:38;20.90;99.90
33699;DHT22;20032;52.436;13.312;2023-06-22T01:46:04;20.90;99.90
33699;DHT22;20032;52.436;13.312;2023-06-22T01:48:30;20.80;99.90
33699;DHT22;20032;52.436;13.312;2023-06-22T01:50:57;20.80;99.90
33699;DHT22;20032;52.436;13.312;2023-06-22T01:53:23;20.80;99.90
33699;DHT22;20032;52.436;13.312;2023-06-22T01:55:50;20.80;99.90
33699;DHT22;20032;52.436;13.312;2023-06-22T01:58:16;20.90;99.90
33699;DHT22;20032;52.436;13.312;2023-06-22T02:00:48;21.00;99.90
33699;DHT22;20032;52.436;13.312;2023-06-22T02:03:19;21.10;99.90
33699;DHT22;20032;52.436;13.312;2023-06-22T02:05:50;21.10;99.90
33699;DHT22;20032;52.436;13.312;2023-06-22T02:08:23;21.00;99.90
33699;DHT22;20032;52.436;13.312;2023-06-22T02:10:50;21.00;99.90
33699;DHT22;20032;52.436;13.312;2023-06-22T02:13:18;21.00;99.90
33699;DHT22;20032;52.436;13.312;2023-06-22T02:15:45;21.00;99.90
33699;DHT22;20032;52.436;13.312;2023-06-22T02:18:11;21.00;99.90
33699;DHT22;20032;52.436;13.312;2023-06-22T02:20:38;20.90;99.90
33699;DHT22;20032;52.436;13.312;2023-06-22T02:23:04;21.00;99.90
33699;DHT22;20032;52.436;13.312;2023-06-22T02:25:30;20.90;99.90
33699;DHT22;20032;52.436;13.312;2023-06-22T02:27:56;20.90;99.90
33699;DHT22;20032;52.436;13.312;2023-06-22T02:30:22;20.80;99.90
33699;DHT22;20032;52.436;13.312;2023-06-22T02:32:47;20.80;99.90
33699;DHT22;20032;52.436;13.312;2023-06-22T02:35:13;20.80;99.90
33699;DHT22;20032;52.436;13.312;2023-06-22T02:37:39;20.80;99.90
33699;DHT22;20032;52.436;13.312;2023-06-22T02:40:07;20.80;99.90
33699;DHT22;20032;52.436;13.312;2023-06-22T02:42:35;20.70;99.90
33699;DHT22;20032;52.436;13.312;2023-06-22T02:45:01;20.80;99.90
33699;DHT22;20032;52.436;13.312;2023-06-22T02:47:26;20.80;99.90
33699;DHT22;20032;52.436;13.312;2023-06-22T02:49:52;20.80;99.90
33699;DHT22;20032;52.436;13.312;2023-06-22T02:52:18;20.90;99.90
33699;DHT22;20032;52.436;13.312;2023-06-22T02:54:44;20.90;99.90
33699;DHT22;20032;52.436;13.312;2023-06-22T02:57:11;20.90;99.90
33699;DHT22;20032;52.436;13.312;2023-06-22T02:59:39;21.00;99.90
33699;DHT22;20032;52.436;13.312;2023-06-22T03:02:07;21.00;99.90
33699;DHT22;20032;52.436;13.312;2023-06-22T03:04:34;21.00;99.90
33699;DHT22;20032;52.436;13.312;2023-06-22T03:07:00;21.00;99.90
33699;DHT22;20032;52.436;13.312;2023-06-22T03:09:28;21.00;99.90
33699;DHT22;20032;52.436;13.312;2023-06-22T03:11:54;21.10;99.90
33699;DHT22;20032;52.436;13.312;2023-06-22T03:14:20;21.10;99.90
33699;DHT22;20032;52.436;13.312;2023-06-22T03:16:45;21.00;99.90
33699;DHT22;20032;52.436;13.312;2023-06-22T03:19:11;21.00;99.90
33699;DHT22;20032;52.436;13.312;2023-06-22T03:21:37;21.00;99.90
33699;DHT22;20032;52.436;13.312;2023-06-22T03:24:05;21.00;99.90
33699;DHT22;20032;52.436;13.312;2023-06-22T03:26:31;21.00;99.90
33699;DHT22;20032;52.436;13.312;2023-06-22T03:28:56;21.00;99.90
33699;DHT22;20032;52.436;13.312;2023-06-22T03:31:22;21.00;99.90
33699;DHT22;20032;52.436;13.312;2023-06-22T03:33:54;21.00;99.90
33699;DHT22;20032;52.436;13.312;2023-06-22T03:36:19;21.00;99.90
33699;DHT22;20032;52.436;13.312;2023-06-22T03:38:47;21.00;99.90
33699;DHT22;20032;52.436;13.312;2023-06-22T03:41:15;21.00;99.90
33699;DHT22;20032;52.436;13.312;2023-06-22T03:43:41;21.00;99.90
33699;DHT22;20032;52.436;13.312;2023-06-22T03:46:07;21.00;99.90
33699;DHT22;20032;52.436;13.312;2023-06-22T03:48:32;21.00;99.90
33699;DHT22;20032;52.436;13.312;2023-06-22T03:50:59;21.00;99.90
33699;DHT22;20032;52.436;13.312;2023-06-22T03:53:26;21.00;99.90
33699;DHT22;20032;52.436;13.312;2023-06-22T03:55:58;21.00;99.90
33699;DHT22;20032;52.436;13.312;2023-06-22T03:58:23;21.00;99.90
33699;DHT22;20032;52.436;13.312;2023-06-22T04:00:51;21.00;99.90
33699;DHT22;20032;52.436;13.312;2023-06-22T04:03:23;20.90;99.90
33699;DHT22;20032;52.436;13.312;2023-06-22T04:05:49;21.00;99.90
33699;DHT22;20032;52.436;13.312;2023-06-22T04:08:15;20.90;99.90
33699;DHT22;20032;52.436;13.312;2023-06-22T04:10:40;20.90;99.90
33699;DHT22;20032;52.436;13.312;2023-06-22T04:13:07;20.80;99.90
33699;DHT22;20032;52.436;13.312;2023-06-22T04:15:33;20.90;99.90
33699;DHT22;20032;52.436;13.312;2023-06-22T04:17:58;20.80;99.90
33699;DHT22;20032;52.436;13.312;2023-06-22T04:20:24;20.90;99.90
33699;DHT22;20032;52.436;13.312;2023-06-22T04:22:53;20.90;99.90
33699;DHT22;20032;52.436;13.312;2023-06-22T04:25:19;20.90;99.90
33699;DHT22;20032;52.436;13.312;2023-06-22T04:27:45;20.90;99.90
33699;DHT22;20032;52.436;13.312;2023-06-22T04:30:11;20.90;99.90
33699;DHT22;20032;52.436;13.312;2023-06-22T04:32:40;20.90;99.90
33699;DHT22;20032;52.436;13.312;2023-06-22T04:35:06;20.90;99.90
33699;DHT22;20032;52.436;13.312;2023-06-22T04:37:32;20.90;99.90
33699;DHT22;20032;52.436;13.312;2023-06-22T04:39:58;21.00;99.90
33699;DHT22;20032;52.436;13.312;2023-06-22T04:42:26;20.90;99.90
33699;DHT22;20032;52.436;13.312;2023-06-22T04:44:51;21.00;99.90
33699;DHT22;20032;52.436;13.312;2023-06-22T04:47:17;21.00;99.90
33699;DHT22;20032;52.436;13.312;2023-06-22T04:49:42;21.00;99.90
33699;DHT22;20032;52.436;13.312;2023-06-22T04:52:09;20.90;99.90
33699;DHT22;20032;52.436;13.312;2023-06-22T04:54:36;21.00;99.90
33699;DHT22;20032;52.436;13.312;2023-06-22T04:57:04;21.00;99.90
33699;DHT22;20032;52.436;13.312;2023-06-22T04:59:31;21.10;99.90
33699;DHT22;20032;52.436;13.312;2023-06-22T05:01:57;21.10;99.90
33699;DHT22;20032;52.436;13.312;2023-06-22T05:04:24;21.20;99.90
33699;DHT22;20032;52.436;13.312;2023-06-22T05:06:51;21.20;99.90
33699;DHT22;20032;52.436;13.312;2023-06-22T05:09:16;21.30;99.90
33699;DHT22;20032;52.436;13.312;2023-06-22T05:11:43;21.40;99.90
33699;DHT22;20032;52.436;13.312;2023-06-22T05:14:08;21.40;99.90
33699;DHT22;20032;52.436;13.312;2023-06-22T05:16:34;21.40;99.90
33699;DHT22;20032;52.436;13.312;2023-06-22T05:19:00;21.40;99.90
33699;DHT22;20032;52.436;13.312;2023-06-22T05:21:26;21.50;99.90
33699;DHT22;20032;52.436;13.312;2023-06-22T05:23:53;21.60;99.90
33699;DHT22;20032;52.436;13.312;2023-06-22T05:26:20;21.60;99.90
33699;DHT22;20032;52.436;13.312;2023-06-22T05:28:47;21.70;99.90
33699;DHT22;20032;52.436;13.312;2023-06-22T05:31:14;21.80;99.90
33699;DHT22;20032;52.436;13.312;2023-06-22T05:33:40;21.90;99.90
33699;DHT22;20032;52.436;13.312;2023-06-22T05:36:06;21.90;99.90
33699;DHT22;20032;52.436;13.312;2023-06-22T05:38:33;21.90;99.90
33699;DHT22;20032;52.436;13.312;2023-06-22T05:40:59;22.00;99.90
33699;DHT22;20032;52.436;13.312;2023-06-22T05:43:27;22.00;99.90
33699;DHT22;20032;52.436;13.312;2023-06-22T05:45:53;22.00;99.90
33699;DHT22;20032;52.436;13.312;2023-06-22T05:48:20;22.00;99.90
33699;DHT22;20032;52.436;13.312;2023-06-22T05:50:48;22.00;99.90
33699;DHT22;20032;52.436;13.312;2023-06-22T05:53:14;22.00;99.90
33699;DHT22;20032;52.436;13.312;2023-06-22T05:55:39;22.00;99.90
33699;DHT22;20032;52.436;13.312;2023-06-22T05:58:12;22.10;99.90
33699;DHT22;20032;52.436;13.312;2023-06-22T06:00:41;22.20;99.90
33699;DHT22;20032;52.436;13.312;2023-06-22T06:03:13;22.30;99.90
33699;DHT22;20032;52.436;13.312;2023-06-22T06:05:42;22.40;99.90
33699;DHT22;20032;52.436;13.312;2023-06-22T06:08:08;22.40;99.90
33699;DHT22;20032;52.436;13.312;2023-06-22T06:10:36;22.40;99.90
33699;DHT22;20032;52.436;13.312;2023-06-22T06:13:01;22.40;99.90
33699;DHT22;20032;52.436;13.312;2023-06-22T06:15:28;22.50;99.90
33699;DHT22;20032;52.436;13.312;2023-06-22T06:17:54;22.50;99.90
33699;DHT22;20032;52.436;13.312;2023-06-22T06:20:21;22.70;99.90
33699;DHT22;20032;52.436;13.312;2023-06-22T06:22:48;22.80;99.90
33699;DHT22;20032;52.436;13.312;2023-06-22T06:25:13;22.90;99.90
33699;DHT22;20032;52.436;13.312;2023-06-22T06:27:43;22.90;99.90
33699;DHT22;20032;52.436;13.312;2023-06-22T06:30:11;23.00;99.90
33699;DHT22;20032;52.436;13.312;2023-06-22T06:32:37;23.10;99.90
33699;DHT22;20032;52.436;13.312;2023-06-22T06:35:05;23.20;99.90
33699;DHT22;20032;52.436;13.312;2023-06-22T06:37:31;23.30;99.90
33699;DHT22;20032;52.436;13.312;2023-06-22T06:39:57;23.30;99.90
33699;DHT22;20032;52.436;13.312;2023-06-22T06:42:23;23.40;99.90
33699;DHT22;20032;52.436;13.312;2023-06-22T06:44:49;23.40;99.90
33699;DHT22;20032;52.436;13.312;2023-06-22T06:47:15;23.50;99.90
33699;DHT22;20032;52.436;13.312;2023-06-22T06:49:42;23.50;99.90
33699;DHT22;20032;52.436;13.312;2023-06-22T06:52:08;23.60;99.90
33699;DHT22;20032;52.436;13.312;2023-06-22T06:54:33;23.60;99.90
33699;DHT22;20032;52.436;13.312;2023-06-22T06:56:59;23.70;99.90
33699;DHT22;20032;52.436;13.312;2023-06-22T06:59:24;23.80;99.90
33699;DHT22;20032;52.436;13.312;2023-06-22T07:01:50;23.80;99.90
33699;DHT22;20032;52.436;13.312;2023-06-22T07:04:15;23.80;99.90
33699;DHT22;20032;52.436;13.312;2023-06-22T07:06:41;23.80;99.90
33699;DHT22;20032;52.436;13.312;2023-06-22T07:09:07;23.70;99.90
33699;DHT22;20032;52.436;13.312;2023-06-22T07:11:33;23.80;99.90
33699;DHT22;20032;52.436;13.312;2023-06-22T07:14:00;23.90;99.90
33699;DHT22;20032;52.436;13.312;2023-06-22T07:16:26;24.10;99.90
33699;DHT22;20032;52.436;13.312;2023-06-22T07:18:53;24.20;99.90
33699;DHT22;20032;52.436;13.312;2023-06-22T07:21:18;24.30;99.90
33699;DHT22;20032;52.436;13.312;2023-06-22T07:23:44;24.40;99.90
33699;DHT22;20032;52.436;13.312;2023-06-22T07:26:09;24.50;99.90
33699;DHT22;20032;52.436;13.312;2023-06-22T07:28:35;24.50;99.90
33699;DHT22;20032;52.436;13.312;2023-06-22T07:31:03;24.50;99.90
33699;DHT22;20032;52.436;13.312;2023-06-22T07:33:29;24.50;99.90
33699;DHT22;20032;52.436;13.312;2023-06-22T07:35:55;24.50;99.90
33699;DHT22;20032;52.436;13.312;2023-06-22T07:38:20;24.60;99.90
33699;DHT22;20032;52.436;13.312;2023-06-22T07:40:47;24.70;99.90
33699;DHT22;20032;52.436;13.312;2023-06-22T07:43:13;24.80;99.90
33699;DHT22;20032;52.436;13.312;2023-06-22T07:45:39;24.90;99.90
33699;DHT22;20032;52.436;13.312;2023-06-22T07:48:06;24.90;99.90
33699;DHT22;20032;52.436;13.312;2023-06-22T07:50:32;25.00;99.90
33699;DHT22;20032;52.436;13.312;2023-06-22T07:52:58;25.00;99.90
33699;DHT22;20032;52.436;13.312;2023-06-22T07:55:23;25.00;99.90
33699;DHT22;20032;52.436;13.312;2023-06-22T07:57:49;24.90;99.90
33699;DHT22;20032;52.436;13.312;2023-06-22T08:00:17;24.90;99.90
33699;DHT22;20032;52.436;13.312;2023-06-22T08:02:45;24.90;99.90
33699;DHT22;20032;52.436;13.312;2023-06-22T08:05:11;24.90;99.90
33699;DHT22;20032;52.436;13.312;2023-06-22T08:07:37;24.90;99.90
33699;DHT22;20032;52.436;13.312;2023-06-22T08:10:05;25.10;99.90
33699;DHT22;20032;52.436;13.312;2023-06-22T08:12:31;25.10;99.90
33699;DHT22;20032;52.436;13.312;2023-06-22T08:14:57;25.10;99.90
33699;DHT22;20032;52.436;13.312;2023-06-22T08:17:24;25.10;99.90
33699;DHT22;20032;52.436;13.312;2023-06-22T08:19:49;25.10;99.90
33699;DHT22;20032;52.436;13.312;2023-06-22T08:22:16;25.10;99.90
33699;DHT22;20032;52.436;13.312;2023-06-22T08:24:41;25.20;99.90
33699;DHT22;20032;52.436;13.312;2023-06-22T08:27:07;25.20;99.90
33699;DHT22;20032;52.436;13.312;2023-06-22T08:29:35;25.20;99.90
33699;DHT22;20032;52.436;13.312;2023-06-22T08:32:00;25.30;99.90
33699;DHT22;20032;52.436;13.312;2023-06-22T08:34:33;25.30;99.90
33699;DHT22;20032;52.436;13.312;2023-06-22T08:37:00;25.40;99.90
33699;DHT22;20032;52.436;13.312;2023-06-22T08:39:27;25.40;99.90
33699;DHT22;20032;52.436;13.312;2023-06-22T08:41:53;25.50;99.90
33699;DHT22;20032;52.436;13.312;2023-06-22T08:44:19;25.60;99.90
33699;DHT22;20032;52.436;13.312;2023-06-22T08:46:45;25.60;98.70
33699;DHT22;20032;52.436;13.312;2023-06-22T08:49:10;25.70;99.30
33699;DHT22;20032;52.436;13.312;2023-06-22T08:51:36;25.90;99.40
33699;DHT22;20032;52.436;13.312;2023-06-22T08:54:02;26.10;99.90
33699;DHT22;20032;52.436;13.312;2023-06-22T08:56:27;26.30;99.80
33699;DHT22;20032;52.436;13.312;2023-06-22T08:58:53;26.20;98.90
33699;DHT22;20032;52.436;13.312;2023-06-22T09:01:18;26.30;99.00
33699;DHT22;20032;52.436;13.312;2023-06-22T09:03:44;26.10;99.10
33699;DHT22;20032;52.436;13.312;2023-06-22T09:06:13;26.00;99.40
33699;DHT22;20032;52.436;13.312;2023-06-22T09:08:39;26.10;99.90
33699;DHT22;20032;52.436;13.312;2023-06-22T09:11:05;26.00;98.90
33699;DHT22;20032;52.436;13.312;2023-06-22T09:13:31;26.10;99.10
33699;DHT22;20032;52.436;13.312;2023-06-22T09:15:57;26.10;99.90
33699;DHT22;20032;52.436;13.312;2023-06-22T09:18:22;26.20;99.30
33699;DHT22;20032;52.436;13.312;2023-06-22T09:20:48;26.30;99.30
33699;DHT22;20032;52.436;13.312;2023-06-22T09:23:14;26.30;98.30
33699;DHT22;20032;52.436;13.312;2023-06-22T09:25:40;26.40;99.90
33699;DHT22;20032;52.436;13.312;2023-06-22T09:28:07;26.40;98.90
33699;DHT22;20032;52.436;13.312;2023-06-22T09:30:32;26.50;99.70
33699;DHT22;20032;52.436;13.312;2023-06-22T09:32:58;26.40;99.40
33699;DHT22;20032;52.436;13.312;2023-06-22T09:35:24;26.40;99.40
33699;DHT22;20032;52.436;13.312;2023-06-22T09:37:49;26.40;99.10
33699;DHT22;20032;52.436;13.312;2023-06-22T09:40:15;26.40;99.90
33699;DHT22;20032;52.436;13.312;2023-06-22T09:42:42;26.40;99.90
33699;DHT22;20032;52.436;13.312;2023-06-22T09:45:08;26.40;99.90
33699;DHT22;20032;52.436;13.312;2023-06-22T09:47:34;26.50;99.90
33699;DHT22;20032;52.436;13.312;2023-06-22T09:50:00;26.50;99.90
33699;DHT22;20032;52.436;13.312;2023-06-22T09:52:27;26.60;99.60
33699;DHT22;20032;52.436;13.312;2023-06-22T09:55:00;26.70;99.90
33699;DHT22;20032;52.436;13.312;2023-06-22T09:57:26;26.70;99.90
33699;DHT22;20032;52.436;13.312;2023-06-22T09:59:51;26.70;99.40
33699;DHT22;20032;52.436;13.312;2023-06-22T10:02:18;26.80;99.80
33699;DHT22;20032;52.436;13.312;2023-06-22T10:04:43;26.90;99.20
33699;DHT22;20032;52.436;13.312;2023-06-22T10:07:09;27.00;98.70
33699;DHT22;20032;52.436;13.312;2023-06-22T10:09:34;27.10;98.80
33699;DHT22;20032;52.436;13.312;2023-06-22T10:12:00;27.30;97.80
33699;DHT22;20032;52.436;13.312;2023-06-22T10:14:25;27.40;97.20
33699;DHT22;20032;52.436;13.312;2023-06-22T10:16:52;27.50;97.40
33699;DHT22;20032;52.436;13.312;2023-06-22T10:19:18;27.50;96.50
33699;DHT22;20032;52.436;13.312;2023-06-22T10:21:44;27.40;98.40
33699;DHT22;20032;52.436;13.312;2023-06-22T10:24:09;27.50;97.30
33699;DHT22;20032;52.436;13.312;2023-06-22T10:26:35;27.60;97.70
33699;DHT22;20032;52.436;13.312;2023-06-22T10:29:02;27.70;97.50
33699;DHT22;20032;52.436;13.312;2023-06-22T10:31:28;27.80;96.70
33699;DHT22;20032;52.436;13.312;2023-06-22T10:33:54;27.80;95.70
33699;DHT22;20032;52.436;13.312;2023-06-22T10:36:21;27.80;95.30
33699;DHT22;20032;52.436;13.312;2023-06-22T10:38:47;27.90;95.80
33699;DHT22;20032;52.436;13.312;2023-06-22T10:41:13;28.20;96.80
33699;DHT22;20032;52.436;13.312;2023-06-22T10:43:40;28.50;95.90
33699;DHT22;20032;52.436;13.312;2023-06-22T10:46:06;28.80;94.50
33699;DHT22;20032;52.436;13.312;2023-06-22T10:48:32;29.10;95.40
33699;DHT22;20032;52.436;13.312;2023-06-22T10:50:58;29.40;94.10
33699;DHT22;20032;52.436;13.312;2023-06-22T10:53:23;29.50;95.80
33699;DHT22;20032;52.436;13.312;2023-06-22T10:55:49;29.50;94.10
33699;DHT22;20032;52.436;13.312;2023-06-22T10:58:22;29.60;93.20
33699;DHT22;20032;52.436;13.312;2023-06-22T11:00:48;29.80;92.60
33699;DHT22;20032;52.436;13.312;2023-06-22T11:03:13;29.90;93.60
33699;DHT22;20032;52.436;13.312;2023-06-22T11:05:39;30.20;92.20
33699;DHT22;20032;52.436;13.312;2023-06-22T11:08:05;29.90;92.10
33699;DHT22;20032;52.436;13.312;2023-06-22T11:10:32;29.60;93.10
33699;DHT22;20032;52.436;13.312;2023-06-22T11:12:58;29.80;92.10
33699;DHT22;20032;52.436;13.312;2023-06-22T11:15:25;29.90;92.80
33699;DHT22;20032;52.436;13.312;2023-06-22T11:17:55;30.10;91.60
33699;DHT22;20032;52.436;13.312;2023-06-22T11:20:21;30.40;92.10
33699;DHT22;20032;52.436;13.312;2023-06-22T11:22:48;30.20;92.10
33699;DHT22;20032;52.436;13.312;2023-06-22T11:25:13;30.60;91.00
33699;DHT22;20032;52.436;13.312;2023-06-22T11:27:41;30.70;91.50
33699;DHT22;20032;52.436;13.312;2023-06-22T11:30:09;30.90;91.20
33699;DHT22;20032;52.436;13.312;2023-06-22T11:32:35;31.10;92.00
33699;DHT22;20032;52.436;13.312;2023-06-22T11:35:01;31.40;90.30
33699;DHT22;20032;52.436;13.312;2023-06-22T11:37:26;31.60;88.00
33699;DHT22;20032;52.436;13.312;2023-06-22T11:39:52;31.40;86.50
33699;DHT22;20032;52.436;13.312;2023-06-22T11:42:20;31.40;89.70
33699;DHT22;20032;52.436;13.312;2023-06-22T11:44:45;31.20;88.50
33699;DHT22;20032;52.436;13.312;2023-06-22T11:47:11;31.30;87.20
33699;DHT22;20032;52.436;13.312;2023-06-22T11:49:36;31.60;89.10
33699;DHT22;20032;52.436;13.312;2023-06-22T11:52:03;32.00;86.00
33699;DHT22;20032;52.436;13.312;2023-06-22T11:54:29;32.30;86.10
33699;DHT22;20032;52.436;13.312;2023-06-22T11:56:55;32.30;86.90
33699;DHT22;20032;52.436;13.312;2023-06-22T11:59:20;32.30;88.00
33699;DHT22;20032;52.436;13.312;2023-06-22T12:01:49;32.00;85.20
33699;DHT22;20032;52.436;13.312;2023-06-22T12:04:16;31.50;84.50
33699;DHT22;20032;52.436;13.312;2023-06-22T12:06:42;31.60;85.00
33699;DHT22;20032;52.436;13.312;2023-06-22T12:09:09;32.00;84.80
33699;DHT22;20032;52.436;13.312;2023-06-22T12:11:34;32.40;85.00
33699;DHT22;20032;52.436;13.312;2023-06-22T12:14:00;32.80;81.80
33699;DHT22;20032;52.436;13.312;2023-06-22T12:16:28;33.20;81.40
33699;DHT22;20032;52.436;13.312;2023-06-22T12:18:54;33.70;80.30
33699;DHT22;20032;52.436;13.312;2023-06-22T12:21:20;34.00;80.60
33699;DHT22;20032;52.436;13.312;2023-06-22T12:23:46;34.00;80.10
33699;DHT22;20032;52.436;13.312;2023-06-22T12:26:12;34.20;78.40
33699;DHT22;20032;52.436;13.312;2023-06-22T12:28:38;34.30;76.80
33699;DHT22;20032;52.436;13.312;2023-06-22T12:31:05;34.10;75.70
33699;DHT22;20032;52.436;13.312;2023-06-22T12:33:30;33.90;76.50
33699;DHT22;20032;52.436;13.312;2023-06-22T12:35:57;33.90;76.30
33699;DHT22;20032;52.436;13.312;2023-06-22T12:38:22;33.50;77.10
33699;DHT22;20032;52.436;13.312;2023-06-22T12:40:50;33.30;77.50
33699;DHT22;20032;52.436;13.312;2023-06-22T12:43:16;33.30;80.70
33699;DHT22;20032;52.436;13.312;2023-06-22T12:45:41;33.60;77.30
33699;DHT22;20032;52.436;13.312;2023-06-22T12:48:13;33.80;75.70
33699;DHT22;20032;52.436;13.312;2023-06-22T12:50:39;34.20;77.30
33699;DHT22;20032;52.436;13.312;2023-06-22T12:53:04;34.30;74.00
33699;DHT22;20032;52.436;13.312;2023-06-22T12:55:32;33.30;75.70
33699;DHT22;20032;52.436;13.312;2023-06-22T12:57:58;32.50;80.00
33699;DHT22;20032;52.436;13.312;2023-06-22T13:00:23;32.40;78.10
33699;DHT22;20032;52.436;13.312;2023-06-22T13:02:49;33.10;78.30
33699;DHT22;20032;52.436;13.312;2023-06-22T13:05:14;33.90;76.20
33699;DHT22;20032;52.436;13.312;2023-06-22T13:07:40;34.50;74.40
33699;DHT22;20032;52.436;13.312;2023-06-22T13:10:09;34.60;77.90
33699;DHT22;20032;52.436;13.312;2023-06-22T13:12:34;34.60;75.90
33699;DHT22;20032;52.436;13.312;2023-06-22T13:15:00;34.60;74.10
33699;DHT22;20032;52.436;13.312;2023-06-22T13:17:31;34.90;73.10
33699;DHT22;20032;52.436;13.312;2023-06-22T13:20:01;35.40;74.00
33699;DHT22;20032;52.436;13.312;2023-06-22T13:22:30;35.80;71.90
33699;DHT22;20032;52.436;13.312;2023-06-22T13:24:56;35.70;71.30
33699;DHT22;20032;52.436;13.312;2023-06-22T13:27:22;35.80;70.50
33699;DHT22;20032;52.436;13.312;2023-06-22T13:29:48;35.80;70.90
33699;DHT22;20032;52.436;13.312;2023-06-22T13:32:14;35.90;71.40
33699;DHT22;20032;52.436;13.312;2023-06-22T13:34:40;36.20;70.30
33699;DHT22;20032;52.436;13.312;2023-06-22T13:37:06;36.20;70.70
33699;DHT22;20032;52.436;13.312;2023-06-22T13:39:32;36.50;71.00
33699;DHT22;20032;52.436;13.312;2023-06-22T13:41:58;36.70;68.40
33699;DHT22;20032;52.436;13.312;2023-06-22T13:44:26;36.60;69.10
33699;DHT22;20032;52.436;13.312;2023-06-22T13:46:54;36.70;68.20
33699;DHT22;20032;52.436;13.312;2023-06-22T13:49:20;36.30;68.50
33699;DHT22;20032;52.436;13.312;2023-06-22T13:51:47;36.40;67.70
33699;DHT22;20032;52.436;13.312;2023-06-22T13:54:13;36.60;68.20
33699;DHT22;20032;52.436;13.312;2023-06-22T13:56:39;36.80;66.70
33699;DHT22;20032;52.436;13.312;2023-06-22T13:59:05;36.40;68.20
33699;DHT22;20032;52.436;13.312;2023-06-22T14:01:34;36.40;67.50
33699;DHT22;20032;52.436;13.312;2023-06-22T14:04:00;36.50;67.10
33699;DHT22;20032;52.436;13.312;2023-06-22T14:06:28;36.70;68.40
33699;DHT22;20032;52.436;13.312;2023-06-22T14:08:55;37.20;69.00
33699;DHT22;20032;52.436;13.312;2023-06-22T14:11:22;37.40;67.10
33699;DHT22;20032;52.436;13.312;2023-06-22T14:13:53;37.60;66.00
33699;DHT22;20032;52.436;13.312;2023-06-22T14:16:20;37.60;67.00
33699;DHT22;20032;52.436;13.312;2023-06-22T14:18:45;37.80;65.30
33699;DHT22;20032;52.436;13.312;2023-06-22T14:21:11;37.60;65.80
33699;DHT22;20032;52.436;13.312;2023-06-22T14:23:36;37.40;66.30
33699;DHT22;20032;52.436;13.312;2023-06-22T14:26:03;37.40;66.50
33699;DHT22;20032;52.436;13.312;2023-06-22T14:28:28;37.40;66.90
33699;DHT22;20032;52.436;13.312;2023-06-22T14:30:54;37.40;66.20
33699;DHT22;20032;52.436;13.312;2023-06-22T14:33:19;37.70;64.80
33699;DHT22;20032;52.436;13.312;2023-06-22T14:35:45;38.00;63.70
33699;DHT22;20032;52.436;13.312;2023-06-22T14:38:10;37.60;66.40
33699;DHT22;20032;52.436;13.312;2023-06-22T14:40:42;37.10;67.80
33699;DHT22;20032;52.436;13.312;2023-06-22T14:43:09;37.50;64.60
33699;DHT22;20032;52.436;13.312;2023-06-22T14:45:35;37.60;64.60
33699;DHT22;20032;52.436;13.312;2023-06-22T14:48:02;37.90;64.10
33699;DHT22;20032;52.436;13.312;2023-06-22T14:50:27;37.90;64.50
33699;DHT22;20032;52.436;13.312;2023-06-22T14:52:53;37.90;65.00
33699;DHT22;20032;52.436;13.312;2023-06-22T14:55:19;37.70;64.20
33699;DHT22;20032;52.436;13.312;2023-06-22T14:57:46;37.60;64.10
33699;DHT22;20032;52.436;13.312;2023-06-22T15:00:14;37.60;64.00
33699;DHT22;20032;52.436;13.312;2023-06-22T15:02:40;38.20;63.80
33699;DHT22;20032;52.436;13.312;2023-06-22T15:05:14;37.80;65.20
33699;DHT22;20032;52.436;13.312;2023-06-22T15:07:41;37.40;67.70
33699;DHT22;20032;52.436;13.312;2023-06-22T15:10:07;37.80;63.20
33699;DHT22;20032;52.436;13.312;2023-06-22T15:12:32;37.60;64.30
33699;DHT22;20032;52.436;13.312;2023-06-22T15:14:59;37.60;63.80
33699;DHT22;20032;52.436;13.312;2023-06-22T15:17:27;37.70;63.70